Time;durP1;ratioP1;P1;durP2;ratioP2;P2;SDS_P1;SDS_P2;PMS_P1;PMS_P2;Temp;Humidity;BMP_temperature;BMP_pressure;BME280_temperature;BME280_humidity;BME280_pressure;Samples;Min_cycle;Max_cycle;Signal;HPM_P1;HPM_P2
2023/03/16 00:02:12;;;;;;;3.47;1.63;;;15.20;64.10;;;;;;3925437;30;20412;-72
2023/03/16 00:04:54;;;;;;;4.13;1.90;;;15.20;63.80;;;;;;3928921;30;20413;-71
2023/03/16 00:07:35;;;;;;;4.55;2.45;;;15.20;63.60;;;;;;3929570;30;20615;-71
2023/03/16 00:10:16;;;;;;;3.58;1.80;;;15.20;63.80;;;;;;3929450;30;20055;-71
2023/03/16 00:12:57;;;;;;;8.38;2.40;;;15.20;64.00;;;;;;3929483;30;20046;-70
2023/03/16 00:15:38;;;;;;;4.20;1.65;;;15.20;64.00;;;;;;3929549;30;20085;-71
2023/03/16 00:18:21;;;;;;;2.47;2.00;;;15.30;64.10;;;;;;3926444;30;20078;-71
2023/03/16 00:21:02;;;;;;;3.13;2.00;;;15.30;63.90;;;;;;3909770;30;20056;-71
2023/03/16 00:23:43;;;;;;;4.03;1.70;;;15.30;65.00;;;;;;3926577;30;20059;-71
2023/03/16 00:26:25;;;;;;;6.22;1.85;;;15.30;64.30;;;;;;3929027;30;20066;-71
2023/03/16 00:29:05;;;;;;;3.42;1.70;;;15.40;64.00;;;;;;3928403;30;20063;-71
2023/03/16 00:31:46;;;;;;;3.75;1.92;;;15.40;63.80;;;;;;3929245;30;20059;-71
2023/03/16 00:34:33;;;;;;;2.80;2.10;;;15.40;63.70;;;;;;3928670;30;20061;-71
2023/03/16 00:37:16;;;;;;;4.07;2.13;;;15.40;63.50;;;;;;3918262;30;20505;-64
2023/03/16 00:39:57;;;;;;;3.85;1.80;;;15.40;63.50;;;;;;3927069;30;20059;-65
2023/03/16 00:42:38;;;;;;;4.80;1.80;;;15.50;63.50;;;;;;3918132;30;20067;-64
2023/03/16 00:45:19;;;;;;;5.65;1.80;;;15.50;63.40;;;;;;3928791;30;20068;-64
2023/03/16 00:48:00;;;;;;;3.63;1.77;;;15.60;63.40;;;;;;3928570;30;20058;-64
2023/03/16 00:50:43;;;;;;;3.22;1.65;;;15.50;63.40;;;;;;3928952;30;20067;-64
2023/03/16 00:53:23;;;;;;;3.80;1.63;;;15.60;63.60;;;;;;3929030;30;20186;-65
2023/03/16 00:56:05;;;;;;;3.83;1.80;;;15.60;63.50;;;;;;3911791;30;20067;-65
2023/03/16 00:58:46;;;;;;;9.35;2.30;;;15.70;63.20;;;;;;3919169;30;20194;-65
2023/03/16 01:01:27;;;;;;;6.30;2.00;;;15.70;63.80;;;;;;3928823;30;20089;-65
2023/03/16 01:04:08;;;;;;;5.28;2.05;;;15.80;62.80;;;;;;3928557;30;20224;-64
2023/03/16 01:06:50;;;;;;;2.25;2.13;;;15.80;63.00;;;;;;3928738;30;20059;-64
2023/03/16 01:09:35;;;;;;;2.78;1.80;;;15.90;62.90;;;;;;3917187;30;20067;-65
2023/03/16 01:12:18;;;;;;;7.18;2.08;;;15.90;62.50;;;;;;3914073;30;20059;-64
2023/03/16 01:14:59;;;;;;;4.35;2.05;;;16.00;62.30;;;;;;3914112;30;20052;-64
2023/03/16 01:17:40;;;;;;;3.60;1.77;;;16.00;62.00;;;;;;3911182;30;20059;-64
2023/03/16 01:20:21;;;;;;;5.93;2.35;;;16.00;62.00;;;;;;3926129;30;20065;-65
2023/03/16 01:23:03;;;;;;;2.80;1.63;;;16.00;62.00;;;;;;3912784;30;20113;-64
2023/03/16 01:25:51;;;;;;;3.03;1.70;;;16.00;62.00;;;;;;3927940;30;20445;-64
2023/03/16 01:28:33;;;;;;;5.68;2.38;;;16.00;62.80;;;;;;3928281;30;20063;-64
2023/03/16 01:31:14;;;;;;;4.72;2.30;;;16.00;61.90;;;;;;3926658;30;20059;-64
2023/03/16 01:33:55;;;;;;;3.95;1.80;;;15.90;61.90;;;;;;3928426;30;20054;-64
2023/03/16 01:36:40;;;;;;;5.70;1.80;;;15.90;62.20;;;;;;3917254;30;20065;-64
2023/03/16 01:39:22;;;;;;;5.30;1.92;;;15.90;62.50;;;;;;3913399;30;20096;-64
2023/03/16 01:42:03;;;;;;;4.55;1.92;;;15.90;62.40;;;;;;3902740;30;20406;-64
2023/03/16 01:44:54;;;;;;;2.75;2.20;;;15.90;62.00;;;;;;3906737;30;20056;-64
2023/03/16 01:47:38;;;;;;;3.10;2.20;;;16.00;62.80;;;;;;3915962;30;20508;-64
2023/03/16 01:50:26;;;;;;;3.60;1.80;;;16.00;62.00;;;;;;3917114;30;20063;-64
2023/03/16 01:53:07;;;;;;;;;;;16.00;61.90;;;;;;3917511;30;20555;-64
2023/03/16 01:55:50;;;;;;;4.07;2.28;;;16.00;62.10;;;;;;3917123;30;20509;-64
2023/03/16 01:58:31;;;;;;;5.70;2.63;;;16.00;62.00;;;;;;3916641;30;20130;-64
2023/03/16 02:01:13;;;;;;;5.57;2.50;;;15.90;61.80;;;;;;3916771;30;20512;-65
2023/03/16 02:04:02;;;;;;;3.17;2.38;;;15.90;61.80;;;;;;3906995;30;20064;-64
2023/03/16 02:06:44;;;;;;;3.55;2.50;;;15.90;62.10;;;;;;3902500;30;20060;-64
2023/03/16 02:09:25;;;;;;;;;;;15.80;62.30;;;;;;3917166;30;20065;-64
2023/03/16 02:12:17;;;;;;;6.85;2.78;;;15.90;62.40;;;;;;3927967;30;19936;-64
2023/03/16 02:15:02;;;;;;;3.42;2.38;;;15.90;62.30;;;;;;3911662;30;20061;-64
2023/03/16 02:17:45;;;;;;;3.85;2.50;;;15.90;62.20;;;;;;3916715;30;20083;-64
2023/03/16 02:20:36;;;;;;;4.90;2.33;;;15.90;61.90;;;;;;3913060;30;20062;-64
2023/03/16 02:23:21;;;;;;;4.15;2.50;;;15.90;61.80;;;;;;3916642;30;20081;-64
2023/03/16 02:26:10;;;;;;;6.78;2.50;;;15.90;61.80;;;;;;3916716;30;20059;-64
2023/03/16 02:29:02;;;;;;;7.28;2.75;;;15.80;61.80;;;;;;3927153;30;20077;-64
2023/03/16 02:31:47;;;;;;;5.70;2.75;;;15.80;62.10;;;;;;3916300;30;20058;-62
2023/03/16 02:34:28;;;;;;;8.48;3.13;;;15.90;62.30;;;;;;3902227;30;20059;-64
2023/03/16 02:37:10;;;;;;;4.65;2.88;;;15.90;62.10;;;;;;3912090;30;20421;-64
2023/03/16 02:39:53;;;;;;;4.35;2.47;;;15.90;61.90;;;;;;3902021;30;20122;-64
2023/03/16 02:42:35;;;;;;;6.80;2.70;;;15.90;61.80;;;;;;3902113;30;20145;-63
2023/03/16 02:45:16;;;;;;;3.97;2.45;;;16.00;61.80;;;;;;3912816;30;20063;-64
2023/03/16 02:48:02;;;;;;;4.55;2.40;;;16.00;61.80;;;;;;3913685;30;20088;-64
2023/03/16 02:50:46;;;;;;;2.90;2.40;;;16.00;61.60;;;;;;3908658;30;20063;-64
2023/03/16 02:53:28;;;;;;;3.50;2.15;;;16.00;62.20;;;;;;3926787;30;20516;-64
2023/03/16 02:56:10;;;;;;;7.85;2.28;;;15.90;61.90;;;;;;3916217;30;20059;-64
2023/03/16 02:58:51;;;;;;;4.97;2.30;;;15.90;62.00;;;;;;3927255;30;20108;-63
2023/03/16 03:01:35;;;;;;;6.68;2.67;;;15.90;61.70;;;;;;3916150;30;20063;-64
2023/03/16 03:04:17;;;;;;;5.88;2.55;;;15.90;61.60;;;;;;3901850;30;20114;-64
2023/03/16 03:07:03;;;;;;;6.57;3.08;;;16.00;61.70;;;;;;3912244;30;20052;-64
2023/03/16 03:09:52;;;;;;;3.60;2.50;;;15.90;61.60;;;;;;3894853;30;20094;-63
2023/03/16 03:12:33;;;;;;;4.55;2.55;;;15.90;61.60;;;;;;3901680;30;20397;-64
2023/03/16 03:15:18;;;;;;;3.67;2.80;;;15.90;61.80;;;;;;3911582;30;20090;-63
2023/03/16 03:18:13;;;;;;;6.07;2.58;;;16.00;61.70;;;;;;3915757;30;20191;-64
2023/03/16 03:20:55;;;;;;;6.35;2.50;;;16.00;61.60;;;;;;3901576;30;20071;-63
2023/03/16 03:23:36;;;;;;;5.38;2.50;;;16.10;61.40;;;;;;3901665;30;20516;-64
2023/03/16 03:26:21;;;;;;;5.68;2.67;;;16.00;61.10;;;;;;3912118;30;20187;-64
2023/03/16 03:29:02;;;;;;;3.22;2.13;;;16.00;61.10;;;;;;3924359;30;20248;-64
2023/03/16 03:31:43;;;;;;;6.82;2.85;;;16.10;61.30;;;;;;3916170;30;20063;-63
2023/03/16 03:34:26;;;;;;;4.38;2.30;;;16.10;61.20;;;;;;3915875;30;20059;-64
2023/03/16 03:37:08;;;;;;;3.00;2.75;;;16.10;60.80;;;;;;3925546;30;20071;-64
2023/03/16 03:39:52;;;;;;;7.00;2.55;;;16.00;60.80;;;;;;3909612;30;20141;-64
2023/03/16 03:42:33;;;;;;;3.40;2.50;;;16.00;61.20;;;;;;3915815;30;20063;-63
2023/03/16 03:45:15;;;;;;;5.07;2.70;;;16.00;61.10;;;;;;3915583;30;20487;-63
2023/03/16 03:47:56;;;;;;;6.15;2.83;;;15.90;61.30;;;;;;3915797;30;20071;-63
2023/03/16 03:50:39;;;;;;;3.85;2.80;;;16.00;61.20;;;;;;3926963;30;20565;-63
2023/03/16 03:53:44;;;;;;;7.13;3.10;;;16.00;61.10;;;;;;3924976;30;20067;-65
2023/03/16 03:56:32;;;;;;;2.80;2.50;;;16.00;61.10;;;;;;3915870;30;20500;-64
2023/03/16 03:59:13;;;;;;;3.53;2.60;;;16.00;61.10;;;;;;3915919;30;20112;-64
2023/03/16 04:02:18;;;;;;;4.88;2.35;;;16.00;61.10;;;;;;3915490;30;20063;-64
2023/03/16 04:05:05;;;;;;;4.38;3.10;;;15.90;61.20;;;;;;3926695;30;20067;-64
2023/03/16 04:07:47;;;;;;;6.63;2.42;;;15.90;61.40;;;;;;3926659;30;20194;-63
2023/03/16 04:10:31;;;;;;;3.92;2.67;;;15.90;61.40;;;;;;3917439;30;20058;-63
2023/03/16 04:13:12;;;;;;;5.40;2.67;;;15.90;61.20;;;;;;3911290;30;20055;-64
2023/03/16 04:15:56;;;;;;;5.38;2.75;;;15.90;61.10;;;;;;3926340;30;20055;-64
2023/03/16 04:18:40;;;;;;;4.55;2.38;;;15.90;61.00;;;;;;3915609;30;20424;-64
2023/03/16 04:21:24;;;;;;;4.25;2.83;;;15.80;61.10;;;;;;3918228;30;20059;-63
2023/03/16 04:24:06;;;;;;;4.22;2.55;;;15.80;61.30;;;;;;3914921;30;20063;-63
2023/03/16 04:26:50;;;;;;;5.38;2.65;;;15.90;61.10;;;;;;3904641;30;20186;-63
2023/03/16 04:29:31;;;;;;;3.78;3.15;;;15.90;61.00;;;;;;3913951;30;20067;-63
2023/03/16 04:32:12;;;;;;;7.53;3.00;;;16.00;61.10;;;;;;3908224;30;20067;-63
2023/03/16 04:34:55;;;;;;;8.10;3.00;;;16.00;60.80;;;;;;3913288;30;20208;-64
2023/03/16 04:37:44;;;;;;;5.13;2.70;;;16.00;61.10;;;;;;3917940;30;20059;-63
2023/03/16 04:40:26;;;;;;;3.42;2.78;;;16.00;61.00;;;;;;3918122;30;20429;-63
2023/03/16 04:43:17;;;;;;;3.50;2.80;;;16.00;60.90;;;;;;3914368;30;20083;-63
2023/03/16 04:45:59;;;;;;;5.35;2.92;;;15.90;60.80;;;;;;3903745;30;20087;-63
2023/03/16 04:48:42;;;;;;;4.50;2.78;;;15.90;61.20;;;;;;3903492;30;20055;-63
2023/03/16 04:51:24;;;;;;;3.20;2.70;;;15.90;61.10;;;;;;3915349;30;20059;-63
2023/03/16 04:54:17;;;;;;;3.78;2.78;;;15.90;61.00;;;;;;3917883;30;20552;-63
2023/03/16 04:56:58;;;;;;;5.75;2.67;;;15.90;61.00;;;;;;3917875;30;20141;-63
2023/03/16 04:59:46;;;;;;;3.90;2.75;;;15.90;61.00;;;;;;3909153;30;20059;-63
2023/03/16 05:02:46;;;;;;;3.88;2.60;;;15.90;61.00;;;;;;3917254;30;20059;-62
2023/03/16 05:05:28;;;;;;;4.13;2.60;;;15.80;61.20;;;;;;3917379;30;20090;-62
2023/03/16 05:08:11;;;;;;;4.55;2.90;;;15.80;61.00;;;;;;3917179;30;20523;-64
2023/03/16 05:10:56;;;;;;;6.13;2.40;;;15.80;61.20;;;;;;3917316;30;20586;-64
2023/03/16 05:13:38;;;;;;;3.72;2.70;;;15.80;61.00;;;;;;3927642;30;20146;-65
2023/03/16 05:16:20;;;;;;;3.13;2.57;;;15.80;61.20;;;;;;3916245;30;20167;-65
2023/03/16 05:19:01;;;;;;;5.72;3.00;;;15.80;61.30;;;;;;3899487;30;20056;-65
2023/03/16 05:21:45;;;;;;;3.13;2.67;;;15.90;61.20;;;;;;3916625;30;20466;-65
2023/03/16 05:24:26;;;;;;;3.78;2.55;;;16.00;61.10;;;;;;3917102;30;20059;-64
2023/03/16 05:27:07;;;;;;;5.13;2.78;;;16.00;60.80;;;;;;3917184;30;20059;-64
2023/03/16 05:29:48;;;;;;;5.10;3.08;;;16.00;60.80;;;;;;3916869;30;20059;-65
2023/03/16 05:32:31;;;;;;;3.63;2.85;;;16.10;60.50;;;;;;3916582;30;20179;-64
2023/03/16 05:35:13;;;;;;;4.47;2.85;;;16.10;60.40;;;;;;3922043;30;20059;-65
2023/03/16 05:37:54;;;;;;;4.35;3.05;;;16.20;60.30;;;;;;3916856;30;20105;-64
2023/03/16 05:40:36;;;;;;;3.95;2.95;;;16.10;60.10;;;;;;3916671;30;20186;-65
2023/03/16 05:43:38;;;;;;;3.53;2.80;;;16.10;60.10;;;;;;3917035;30;20054;-64
2023/03/16 05:46:20;;;;;;;3.95;3.20;;;16.00;60.40;;;;;;3916958;30;20512;-64
2023/03/16 05:49:04;;;;;;;4.07;3.13;;;16.00;60.50;;;;;;3916735;30;20059;-71
2023/03/16 05:51:45;;;;;;;5.43;2.95;;;16.00;60.50;;;;;;3917184;30;20533;-72
2023/03/16 05:54:26;;;;;;;3.30;2.70;;;16.00;60.60;;;;;;3904741;30;20554;-71
2023/03/16 05:57:07;;;;;;;7.25;2.90;;;15.90;60.50;;;;;;3902898;30;20064;-72
2023/03/16 05:59:49;;;;;;;6.13;2.95;;;15.90;61.20;;;;;;3902354;30;20056;-71
2023/03/16 06:02:30;;;;;;;3.10;2.67;;;15.90;60.90;;;;;;3892534;30;20068;-71
2023/03/16 06:05:13;;;;;;;3.75;3.00;;;15.90;61.00;;;;;;3902601;30;20068;-71
2023/03/16 06:07:56;;;;;;;4.50;2.90;;;16.00;61.00;;;;;;3908289;30;20142;-72
2023/03/16 06:10:37;;;;;;;;;;;16.00;60.70;;;;;;3917304;30;20082;-71
2023/03/16 06:13:18;;;;;;;3.42;2.78;;;16.10;60.70;;;;;;3903205;30;19934;-72
2023/03/16 06:16:00;;;;;;;5.57;3.50;;;16.10;60.60;;;;;;3892710;30;20508;-71
2023/03/16 06:18:41;;;;;;;4.32;3.08;;;16.00;60.20;;;;;;3916848;30;20051;-71
2023/03/16 06:21:24;;;;;;;;;;;16.00;60.30;;;;;;3914603;30;20059;-71
2023/03/16 06:24:08;;;;;;;4.00;3.05;;;16.00;60.70;;;;;;3916770;30;20029;-70
2023/03/16 06:26:49;;;;;;;;;;;15.90;60.90;;;;;;3908870;30;20525;-71
2023/03/16 06:29:32;;;;;;;5.90;3.35;;;15.90;61.10;;;;;;3902273;30;19967;-71
2023/03/16 06:32:14;;;;;;;;;;;15.90;61.60;;;;;;3902037;30;20059;-71
2023/03/16 06:34:58;;;;;;;3.75;3.00;;;15.80;61.30;;;;;;3901637;30;19933;-71
2023/03/16 06:37:41;;;;;;;4.10;2.72;;;15.80;61.40;;;;;;3906390;30;20219;-69
2023/03/16 06:40:36;;;;;;;4.15;3.75;;;15.70;61.10;;;;;;3904382;30;20073;-69
2023/03/16 06:43:17;;;;;;;6.25;3.30;;;15.80;61.10;;;;;;3901064;30;20110;-69
2023/03/16 06:45:58;;;;;;;3.50;3.20;;;15.70;61.10;;;;;;3917312;30;20211;-68
2023/03/16 06:48:40;;;;;;;3.83;2.60;;;15.80;61.40;;;;;;3905849;30;20540;-68
2023/03/16 06:51:22;;;;;;;4.85;3.47;;;15.70;61.10;;;;;;3915457;30;20146;-67
2023/03/16 06:54:05;;;;;;;5.38;2.92;;;15.80;61.00;;;;;;3916209;30;20063;-68
2023/03/16 06:56:51;;;;;;;4.93;3.38;;;15.80;60.60;;;;;;3915676;30;20162;-68
2023/03/16 06:59:33;;;;;;;5.05;3.20;;;15.80;60.50;;;;;;3924227;30;20064;-67
2023/03/16 07:02:15;;;;;;;3.42;3.05;;;15.90;61.50;;;;;;3926280;30;20059;-68
2023/03/16 07:04:57;;;;;;;2.47;2.28;;;15.90;60.60;;;;;;3915890;30;20087;-68
2023/03/16 07:07:37;;;;;;;4.13;3.33;;;16.00;60.50;;;;;;3912485;30;20074;-68
2023/03/16 07:10:20;;;;;;;4.15;3.38;;;16.10;60.10;;;;;;3901555;30;20060;-68
2023/03/16 07:13:01;;;;;;;3.33;3.03;;;16.20;59.80;;;;;;3911441;30;20065;-68
2023/03/16 07:15:43;;;;;;;3.67;3.30;;;16.20;59.60;;;;;;3906239;30;20051;-68
2023/03/16 07:18:24;;;;;;;5.35;3.45;;;16.30;59.50;;;;;;3915076;30;20162;-68
2023/03/16 07:21:07;;;;;;;3.25;2.95;;;16.30;59.30;;;;;;3909139;30;20113;-68
2023/03/16 07:23:48;;;;;;;6.07;3.35;;;16.30;59.40;;;;;;3904079;30;20424;-68
2023/03/16 07:26:35;;;;;;;16.02;3.20;;;16.30;59.40;;;;;;3904566;30;20137;-67
2023/03/16 07:29:17;;;;;;;4.55;3.65;;;16.30;59.20;;;;;;3906310;30;20070;-67
2023/03/16 07:31:58;;;;;;;5.00;3.20;;;16.30;59.20;;;;;;3913793;30;20091;-67
2023/03/16 07:34:46;;;;;;;3.55;2.58;;;16.20;59.00;;;;;;3910794;30;20059;-68
2023/03/16 07:37:28;;;;;;;3.50;3.20;;;16.20;59.20;;;;;;3905881;30;20517;-67
2023/03/16 07:40:13;;;;;;;3.33;2.80;;;16.10;59.30;;;;;;3901691;30;20190;-67
2023/03/16 07:42:55;;;;;;;7.03;3.30;;;16.10;59.20;;;;;;3915675;30;20055;-68
2023/03/16 07:45:47;;;;;;;3.40;2.80;;;16.10;59.00;;;;;;3901247;30;20083;-67
2023/03/16 07:48:31;;;;;;;4.38;2.70;;;16.10;59.20;;;;;;3901392;30;20064;-68
2023/03/16 07:51:15;;;;;;;4.40;3.00;;;16.10;59.10;;;;;;3900809;30;20505;-66
2023/03/16 07:54:00;;;;;;;6.50;3.20;;;16.10;59.20;;;;;;3906826;30;20132;-65
2023/03/16 07:56:45;;;;;;;3.38;2.60;;;16.10;59.10;;;;;;3918565;30;20079;-64
2023/03/16 07:59:49;;;;;;;4.60;2.95;;;16.10;59.80;;;;;;3918548;30;20059;-65
2023/03/16 08:02:31;;;;;;;3.58;2.80;;;16.10;59.20;;;;;;3904211;30;20202;-65
2023/03/16 08:05:14;;;;;;;3.35;3.05;;;16.10;59.20;;;;;;3917886;30;20062;-65
2023/03/16 08:08:01;;;;;;;3.65;2.60;;;16.10;60.10;;;;;;3918051;30;20111;-65
2023/03/16 08:10:46;;;;;;;6.95;3.60;;;16.10;59.30;;;;;;3918541;30;20067;-64
2023/03/16 08:13:31;;;;;;;4.75;3.15;;;16.10;59.20;;;;;;3918272;30;20141;-65
2023/03/16 08:16:13;;;;;;;3.30;2.83;;;16.10;59.20;;;;;;3927598;30;20072;-65
2023/03/16 08:18:57;;;;;;;3.95;2.90;;;16.10;60.00;;;;;;3918541;30;20074;-67
2023/03/16 08:21:38;;;;;;;4.85;2.72;;;16.20;59.30;;;;;;3917848;30;20063;-67
2023/03/16 08:24:39;;;;;;;3.43;3.10;;;16.20;59.80;;;;;;3905333;30;20504;-68
2023/03/16 08:27:22;;;;;;;3.58;3.20;;;16.30;59.10;;;;;;3914058;30;20055;-66
2023/03/16 08:30:11;;;;;;;2.97;2.72;;;16.30;58.90;;;;;;3899942;30;20067;-68
2023/03/16 08:33:00;;;;;;;5.63;3.13;;;16.30;58.80;;;;;;3910607;30;20063;-67
2023/03/16 08:35:43;;;;;;;4.13;2.72;;;16.20;58.70;;;;;;3918218;30;20063;-68
2023/03/16 08:38:24;;;;;;;3.33;3.00;;;16.20;58.80;;;;;;3907682;30;20519;-66
2023/03/16 08:41:06;;;;;;;3.30;2.80;;;16.30;58.90;;;;;;3917580;30;20063;-68
2023/03/16 08:43:48;;;;;;;4.70;2.83;;;16.30;58.90;;;;;;3921983;30;20058;-68
2023/03/16 08:46:32;;;;;;;2.90;2.42;;;16.20;58.90;;;;;;3903464;30;20117;-66
2023/03/16 08:49:16;;;;;;;7.13;3.05;;;16.20;59.00;;;;;;3903557;30;20056;-65
2023/03/16 08:51:59;;;;;;;5.03;2.90;;;16.20;59.50;;;;;;3915251;30;20067;-65
2023/03/16 08:54:42;;;;;;;3.92;2.88;;;16.20;59.80;;;;;;3913914;30;20063;-65
2023/03/16 08:57:43;;;;;;;3.03;2.80;;;16.20;59.80;;;;;;3902760;30;20058;-65
2023/03/16 09:00:24;;;;;;;4.75;3.25;;;16.20;59.80;;;;;;3900845;30;20520;-64
2023/03/16 09:03:06;;;;;;;5.35;3.08;;;16.10;59.80;;;;;;3898360;30;20530;-64
2023/03/16 09:05:48;;;;;;;4.80;3.28;;;16.20;60.00;;;;;;3914071;30;20069;-65
2023/03/16 09:08:30;;;;;;;3.33;3.03;;;16.20;59.90;;;;;;3913884;30;20063;-65
2023/03/16 09:11:14;;;;;;;2.83;2.63;;;16.30;59.70;;;;;;3913744;30;20079;-65
2023/03/16 09:13:54;;;;;;;3.08;2.75;;;16.30;59.50;;;;;;3913889;30;20515;-65
2023/03/16 09:16:37;;;;;;;4.65;3.08;;;16.30;59.50;;;;;;3906622;30;20124;-64
2023/03/16 09:19:18;;;;;;;3.47;3.17;;;16.30;59.20;;;;;;3928464;30;20145;-63
2023/03/16 09:22:00;;;;;;;3.92;3.05;;;16.30;59.30;;;;;;3928534;30;20067;-64
2023/03/16 09:24:41;;;;;;;4.90;2.92;;;16.30;59.40;;;;;;3928714;30;20058;-63
2023/03/16 09:27:22;;;;;;;5.53;3.03;;;16.30;59.50;;;;;;3917693;30;20059;-64
2023/03/16 09:30:04;;;;;;;3.13;2.88;;;16.20;59.60;;;;;;3927857;30;20063;-63
2023/03/16 09:32:47;;;;;;;3.30;3.00;;;16.30;59.70;;;;;;3917253;30;20069;-63
2023/03/16 09:35:28;;;;;;;3.72;3.13;;;16.30;59.50;;;;;;3928373;30;20088;-64
2023/03/16 09:38:12;;;;;;;3.85;2.97;;;16.30;59.40;;;;;;3928340;30;20562;-64
2023/03/16 09:40:59;;;;;;;4.72;3.45;;;16.20;59.40;;;;;;3927506;30;20166;-63
2023/03/16 09:43:55;;;;;;;3.70;3.25;;;16.30;59.40;;;;;;3924321;30;20166;-63
2023/03/16 09:46:41;;;;;;;4.07;3.10;;;16.30;59.20;;;;;;3923151;30;20079;-64
2023/03/16 09:49:27;;;;;;;4.95;3.10;;;16.30;59.40;;;;;;3927940;30;20516;-64
2023/03/16 09:52:20;;;;;;;4.78;3.72;;;16.20;59.40;;;;;;3927892;30;20067;-64
2023/03/16 09:55:10;;;;;;;4.78;3.25;;;16.20;59.60;;;;;;3922217;30;20055;-65
2023/03/16 09:57:52;;;;;;;4.72;3.28;;;16.20;59.40;;;;;;3920688;30;20152;-65
2023/03/16 10:00:38;;;;;;;3.47;3.17;;;16.20;59.50;;;;;;3928083;30;20067;-66
2023/03/16 10:03:33;;;;;;;4.30;3.40;;;16.30;59.80;;;;;;3927847;30;20054;-65
2023/03/16 10:06:15;;;;;;;4.53;3.25;;;16.30;60.00;;;;;;3923887;30;20067;-66
2023/03/16 10:09:05;;;;;;;4.55;3.33;;;16.40;59.90;;;;;;3917231;30;20520;-66
2023/03/16 10:11:52;;;;;;;3.78;3.25;;;16.40;59.80;;;;;;3907897;30;20201;-67
2023/03/16 10:14:40;;;;;;;4.57;3.25;;;16.40;59.90;;;;;;3912896;30;20138;-67
2023/03/16 10:17:27;;;;;;;3.88;3.47;;;16.40;59.90;;;;;;3912934;30;20055;-67
2023/03/16 10:20:16;;;;;;;4.63;3.58;;;16.40;60.10;;;;;;3921815;30;20552;-66
2023/03/16 10:22:59;;;;;;;4.85;3.53;;;16.40;60.00;;;;;;3919234;30;20553;-66
2023/03/16 10:25:46;;;;;;;5.28;3.20;;;16.40;60.30;;;;;;3922037;30;20067;-66
2023/03/16 10:28:31;;;;;;;3.33;2.97;;;16.30;60.30;;;;;;3922535;30;20060;-66
2023/03/16 10:31:13;;;;;;;4.72;3.58;;;16.30;60.60;;;;;;3924848;30;20064;-66
2023/03/16 10:34:02;;;;;;;5.43;2.92;;;16.30;60.60;;;;;;3915194;30;20064;-66
2023/03/16 10:36:46;;;;;;;3.25;2.95;;;16.30;60.40;;;;;;3925916;30;20067;-66
2023/03/16 10:39:41;;;;;;;3.63;2.60;;;16.30;60.60;;;;;;3927321;30;20499;-66
2023/03/16 10:42:24;;;;;;;4.10;3.75;;;16.20;60.80;;;;;;3926833;30;20067;-65
2023/03/16 10:45:22;;;;;;;3.80;3.47;;;16.20;62.20;;;;;;3927251;30;20063;-65
2023/03/16 10:48:08;;;;;;;3.65;3.30;;;16.10;60.80;;;;;;3907643;30;20074;-65
2023/03/16 10:50:51;;;;;;;4.07;3.67;;;16.00;61.30;;;;;;3913410;30;20063;-65
2023/03/16 10:53:37;;;;;;;3.63;3.25;;;16.00;61.80;;;;;;3919474;30;20067;-65
2023/03/16 10:56:24;;;;;;;3.60;2.90;;;15.90;62.20;;;;;;3917896;30;20056;-65
2023/03/16 10:59:22;;;;;;;4.95;3.33;;;15.80;62.20;;;;;;3921439;30;20060;-66
2023/03/16 11:02:16;;;;;;;6.63;3.75;;;15.80;62.60;;;;;;3912179;30;20079;-66
2023/03/16 11:04:57;;;;;;;4.45;3.67;;;15.70;62.80;;;;;;3926743;30;20067;-67
2023/03/16 11:07:38;;;;;;;6.43;3.53;;;15.80;63.00;;;;;;3927401;30;20058;-67
2023/03/16 11:10:28;;;;;;;5.47;3.63;;;15.80;63.10;;;;;;3909481;30;20129;-68
2023/03/16 11:13:13;;;;;;;7.80;3.83;;;15.70;63.40;;;;;;3914797;30;20059;-66
2023/03/16 11:16:00;;;;;;;4.20;3.58;;;15.70;63.40;;;;;;3926775;30;20113;-66
2023/03/16 11:18:45;;;;;;;6.93;3.65;;;15.70;63.30;;;;;;3927029;30;20492;-66
2023/03/16 11:21:37;;;;;;;5.75;4.18;;;15.70;63.90;;;;;;3926922;30;20062;-67
2023/03/16 11:24:24;;;;;;;7.75;4.38;;;15.60;64.00;;;;;;3926050;30;20113;-66
2023/03/16 11:27:12;;;;;;;6.60;4.13;;;15.60;63.90;;;;;;3916519;30;20133;-66
2023/03/16 11:30:08;;;;;;;4.22;3.85;;;15.50;64.30;;;;;;3914280;30;20063;-66
2023/03/16 11:32:52;;;;;;;4.20;3.65;;;15.40;64.30;;;;;;3923418;30;20129;-65
2023/03/16 11:35:41;;;;;;;6.68;3.70;;;15.40;64.70;;;;;;3926720;30;20052;-65
2023/03/16 11:38:45;;;;;;;5.57;3.40;;;15.30;64.80;;;;;;3926282;30;20508;-65
2023/03/16 11:41:34;;;;;;;6.28;3.60;;;15.30;65.30;;;;;;3926522;30;20058;-66
2023/03/16 11:44:22;;;;;;;5.80;3.80;;;15.20;65.20;;;;;;3915535;30;20075;-67
2023/03/16 11:47:17;;;;;;;4.72;2.95;;;15.20;65.50;;;;;;3915622;30;20079;-66
2023/03/16 11:50:04;;;;;;;5.57;3.10;;;15.10;65.80;;;;;;3926066;30;20059;-67
2023/03/16 11:52:58;;;;;;;4.10;3.45;;;15.10;65.70;;;;;;3926616;30;20059;-67
2023/03/16 11:55:45;;;;;;;5.07;3.35;;;15.00;65.30;;;;;;3904682;30;20059;-67
2023/03/16 11:58:46;;;;;;;6.43;3.45;;;15.00;65.90;;;;;;3905076;30;20059;-68
2023/03/16 12:01:40;;;;;;;4.88;4.30;;;14.90;65.80;;;;;;3914615;30;20508;-67
2023/03/16 12:04:45;;;;;;;4.45;3.45;;;14.90;65.90;;;;;;3913607;30;20069;-67
2023/03/16 12:07:39;;;;;;;4.78;3.40;;;14.90;66.00;;;;;;3915146;30;20190;-67
2023/03/16 12:10:29;;;;;;;4.18;3.30;;;14.80;66.10;;;;;;3901696;30;20102;-67
2023/03/16 12:13:29;;;;;;;3.20;3.00;;;14.80;66.20;;;;;;3909436;30;20520;-67
2023/03/16 12:16:16;;;;;;;5.22;3.63;;;14.80;66.20;;;;;;3924082;30;20396;-68
2023/03/16 12:19:00;;;;;;;5.35;3.30;;;14.80;66.50;;;;;;3926100;30;20405;-71
2023/03/16 12:21:45;;;;;;;6.10;3.88;;;14.80;66.60;;;;;;3926238;30;20059;-71
2023/03/16 12:24:34;;;;;;;6.32;4.03;;;14.80;66.50;;;;;;3924187;30;20197;-71
2023/03/16 12:27:22;;;;;;;6.85;3.60;;;14.70;66.30;;;;;;3926459;30;20063;-71
2023/03/16 12:30:20;;;;;;;4.72;3.15;;;14.70;66.70;;;;;;3919791;30;20067;-71
2023/03/16 12:33:05;;;;;;;9.35;3.50;;;14.70;66.70;;;;;;3923655;30;20401;-72
2023/03/16 12:35:50;;;;;;;4.60;3.60;;;14.70;66.80;;;;;;3911469;30;20421;-72
2023/03/16 12:38:47;;;;;;;7.68;3.97;;;14.70;67.00;;;;;;3917495;30;20420;-71
2023/03/16 12:41:39;;;;;;;8.82;4.32;;;14.60;67.40;;;;;;3925657;30;20066;-71
2023/03/16 12:44:22;;;;;;;;;;;14.60;67.70;;;;;;3918495;30;20520;-71
2023/03/16 12:47:12;;;;;;;4.53;2.30;;;14.60;68.10;;;;;;3928801;30;19933;-71
2023/03/16 12:49:55;;;;;;;5.65;3.20;;;14.60;68.70;;;;;;3918078;30;20144;-70
2023/03/16 12:52:41;;;;;;;7.20;3.85;;;14.60;69.30;;;;;;3928668;30;20132;-71
2023/03/16 12:55:26;;;;;;;5.13;3.75;;;14.50;69.60;;;;;;3928894;30;20054;-71
2023/03/16 12:58:09;;;;;;;6.57;4.15;;;14.50;69.50;;;;;;3928577;30;20063;-71
2023/03/16 13:00:58;;;;;;;5.72;3.05;;;14.50;69.80;;;;;;3929003;30;20152;-70
2023/03/16 13:03:41;;;;;;;6.70;3.88;;;14.50;69.70;;;;;;3917614;30;20055;-70
2023/03/16 13:06:24;;;;;;;5.30;2.58;;;14.50;69.40;;;;;;3926203;30;20059;-71
2023/03/16 13:09:06;;;;;;;6.75;3.38;;;14.50;69.60;;;;;;3928562;30;20079;-67
2023/03/16 13:11:50;;;;;;;3.50;2.85;;;14.50;69.50;;;;;;3928954;30;20190;-67
2023/03/16 13:14:37;;;;;;;5.97;3.28;;;14.50;69.10;;;;;;3929052;30;20062;-68
2023/03/16 13:17:31;;;;;;;7.25;3.92;;;14.50;68.80;;;;;;3928300;30;20190;-66
2023/03/16 13:20:26;;;;;;;5.80;3.55;;;14.60;68.20;;;;;;3928309;30;20202;-67
2023/03/16 13:23:22;;;;;;;3.50;3.17;;;14.60;67.40;;;;;;3927887;30;20067;-68
2023/03/16 13:26:04;;;;;;;;;;;14.70;67.50;;;;;;3928317;30;20051;-70
2023/03/16 13:28:51;;;;;;;4.30;3.20;;;14.70;67.50;;;;;;3928310;30;19937;-71
2023/03/16 13:31:36;;;;;;;6.80;3.35;;;14.80;67.20;;;;;;3922293;30;20133;-69
2023/03/16 13:34:23;;;;;;;5.80;3.65;;;14.90;66.80;;;;;;3915874;30;20055;-71
2023/03/16 13:37:04;;;;;;;4.32;3.55;;;15.00;66.50;;;;;;3916675;30;20198;-70
2023/03/16 13:39:52;;;;;;;4.90;3.92;;;15.10;67.00;;;;;;3927673;30;20071;-70
2023/03/16 13:42:35;;;;;;;4.00;3.10;;;15.20;65.50;;;;;;3927996;30;20127;-70
2023/03/16 13:45:20;;;;;;;3.92;3.35;;;15.30;65.40;;;;;;3927321;30;20072;-70
2023/03/16 13:48:02;;;;;;;3.88;3.03;;;15.30;65.10;;;;;;3920792;30;20059;-69
2023/03/16 13:50:44;;;;;;;4.35;3.78;;;15.30;64.90;;;;;;3927659;30;20067;-68
2023/03/16 13:53:28;;;;;;;3.55;3.25;;;15.30;64.80;;;;;;3913051;30;20075;-69
2023/03/16 13:56:14;;;;;;;3.42;3.13;;;15.30;64.60;;;;;;3913643;30;20091;-69
2023/03/16 13:58:58;;;;;;;3.80;3.40;;;15.30;64.60;;;;;;3914231;30;20063;-69
2023/03/16 14:01:39;;;;;;;15.45;4.70;;;15.30;64.40;;;;;;3916480;30;20098;-70
2023/03/16 14:04:22;;;;;;;4.20;3.47;;;15.30;64.40;;;;;;3922547;30;20060;-69
2023/03/16 14:07:15;;;;;;;4.18;3.47;;;15.30;64.40;;;;;;3913125;30;20071;-67
2023/03/16 14:09:57;;;;;;;4.78;2.85;;;15.30;64.30;;;;;;3912883;30;20715;-67
2023/03/16 14:12:39;;;;;;;4.65;3.03;;;15.30;64.20;;;;;;3913071;30;20067;-67
2023/03/16 14:15:22;;;;;;;3.10;2.90;;;15.20;63.80;;;;;;3902326;30;20149;-67
2023/03/16 14:18:13;;;;;;;5.63;3.10;;;15.20;63.80;;;;;;3913056;30;20064;-67
2023/03/16 14:20:56;;;;;;;4.00;2.92;;;15.20;63.70;;;;;;3913526;30;20200;-68